Moneta, Virginia
Current Conditions -  °F | °C
As of 2:54 AM on Saturday 01 Nov 2014 (Local Time) from KROA Reporting Station
Light Rain Light Rain  
Wind Chill: 43°   Ceiling: 1800
Heat Index: 43°   Visibility: 7mi
Dew Point: 40°   Wind: 0mph
Humidity: 89%   Direction: NA
Pressure: 29.81"   Gusts: NA
Location:  37.18°N, 79.62°W
Report Text: KROA 010654Z 00000KT 7SM -RA BKN018 OVC024 06/04 A2981 RMK AO2 SLP093 P0006 T00610044
Loading
Personal Weather Stations






























Interactive Weather Map
Tropical Storm Tracking
New forecast layout! Learn more

10-Day Weather Forecast

Advertisements
Track Severe Weather on mobile